Time,TemperatureF,DewpointF,PressureIn,WindDirection,WindDirectionDegrees,WindSpeedMPH,WindSpeedGustMPH,Humidity,HourlyPrecipIn,Conditions,Clouds,dailyrainin,SoftwareType,DateUTC
2013-01-02 00:03:00,6.4,-0.4,30.35,SE,135,0.0,0.0,73,0.00,,,0.00,WUHU21623XXSP,2013-01-02 08:03:00,
2013-01-02 00:10:00,6.4,-0.4,30.35,SSE,157,0.0,0.0,73,0.00,,,0.00,WUHU21623XXSP,2013-01-02 08:10:00,
2013-01-02 00:21:00,6.1,-0.8,30.34,NE,45,0.0,0.0,73,0.00,,,0.00,WUHU21623XXSP,2013-01-02 08:21:00,
2013-01-02 00:51:00,5.4,-1.5,30.34,North,0,0.0,0.0,73,0.00,,,0.00,WUHU21623XXSP,2013-01-02 08:51:00,
2013-01-02 00:58:00,5.0,-1.9,30.35,NW,315,0.0,0.0,73,0.00,,,0.00,WUHU21623XXSP,2013-01-02 08:58:00,
2013-01-02 01:03:00,4.8,-1.8,30.35,NW,315,0.0,0.0,74,0.00,,,0.00,WUHU21623XXSP,2013-01-02 09:03:00,
2013-01-02 01:12:00,4.6,-1.9,30.34,NW,315,0.0,0.0,74,0.00,,,0.00,WUHU21623XXSP,2013-01-02 09:12:00,
2013-01-02 01:17:00,4.5,-2.1,30.34,NNW,337,3.4,3.4,74,0.00,,,0.00,WUHU21623XXSP,2013-01-02 09:17:00,
2013-01-02 01:22:00,4.3,-2.1,30.35,WNW,292,0.0,3.4,74,0.00,,,0.00,WUHU21623XXSP,2013-01-02 09:22:00,
2013-01-02 01:27:00,4.5,-2.1,30.35,NNW,337,3.6,3.6,74,0.00,,,0.00,WUHU21623XXSP,2013-01-02 09:27:00,
2013-01-02 01:32:00,4.5,-1.8,30.35,NNW,337,2.0,3.6,75,0.00,,,0.00,WUHU21623XXSP,2013-01-02 09:32:00,
2013-01-02 01:37:00,4.5,-1.8,30.35,WNW,292,0.0,2.0,75,0.00,,,0.00,WUHU21623XXSP,2013-01-02 09:37:00,
2013-01-02 01:42:00,4.5,-1.8,30.35,NE,45,0.0,0.0,75,0.00,,,0.00,WUHU21623XXSP,2013-01-02 09:42:00,
2013-01-02 01:47:00,4.5,-1.8,30.35,NE,45,0.0,0.0,75,0.00,,,0.00,WUHU21623XXSP,2013-01-02 09:47:00,
2013-01-02 01:58:00,4.5,-1.8,30.35,WSW,247,0.0,0.0,75,0.00,,,0.00,WUHU21623XXSP,2013-01-02 09:58:00,
2013-01-02 02:03:00,4.6,-1.4,30.36,NNW,337,0.0,0.0,76,0.00,,,0.00,WUHU21623XXSP,2013-01-02 10:03:00,
2013-01-02 02:10:00,4.6,-1.4,30.36,NNW,337,0.0,0.0,76,0.00,,,0.00,WUHU21623XXSP,2013-01-02 10:10:00,
2013-01-02 02:19:00,4.6,-1.4,30.36,SE,135,0.0,0.0,76,0.00,,,0.00,WUHU21623XXSP,2013-01-02 10:19:00,
2013-01-02 02:24:00,4.6,-1.4,30.36,SE,135,0.0,0.0,76,0.00,,,0.00,WUHU21623XXSP,2013-01-02 10:24:00,
2013-01-02 02:29:00,4.5,-1.5,30.37,SE,135,0.0,0.0,76,0.00,,,0.00,WUHU21623XXSP,2013-01-02 10:29:00,
2013-01-02 02:44:00,4.3,-1.7,30.37,ENE,67,0.0,0.0,76,0.00,,,0.00,WUHU21623XXSP,2013-01-02 10:44:00,
2013-01-02 02:49:00,4.3,-1.7,30.37,ENE,67,0.0,0.0,76,0.00,,,0.00,WUHU21623XXSP,2013-01-02 10:49:00,
2013-01-02 02:58:00,4.1,-1.9,30.36,ENE,67,0.0,0.0,76,0.00,,,0.00,WUHU21623XXSP,2013-01-02 10:58:00,
2013-01-02 03:03:00,3.9,-2.1,30.36,ENE,67,0.0,0.0,76,0.00,,,0.00,WUHU21623XXSP,2013-01-02 11:03:00,
2013-01-02 03:08:00,3.9,-2.1,30.37,ENE,67,0.0,0.0,76,0.00,,,0.00,WUHU21623XXSP,2013-01-02 11:08:00,
2013-01-02 03:25:00,3.6,-2.2,30.35,WSW,247,0.0,0.0,76,0.00,,,0.00,WUHU21623XXSP,2013-01-02 11:25:00,
2013-01-02 03:38:00,3.4,-2.6,30.35,South,180,0.0,0.0,76,0.00,,,0.00,WUHU21623XXSP,2013-01-02 11:38:00,
2013-01-02 03:51:00,3.0,-2.9,30.36,SSW,202,0.0,0.0,76,0.00,,,0.00,WUHU21623XXSP,2013-01-02 11:51:00,
2013-01-02 03:56:00,2.8,-3.1,30.36,SSW,202,0.0,0.0,76,0.00,,,0.00,WUHU21623XXSP,2013-01-02 11:56:00,
2013-01-02 04:01:00,2.8,-3.1,30.36,SSW,202,0.0,0.0,76,0.00,,,0.00,WUHU21623XXSP,2013-01-02 12:01:00,
2013-01-02 04:06:00,2.5,-3.2,30.35,NNW,337,0.0,0.0,77,0.00,,,0.00,WUHU21623XXSP,2013-01-02 12:06:00,
2013-01-02 04:14:00,2.3,-3.6,30.36,North,0,0.0,0.0,76,0.00,,,0.00,WUHU21623XXSP,2013-01-02 12:14:00,
2013-01-02 04:21:00,1.9,-3.7,30.36,WNW,292,0.0,0.0,77,0.00,,,0.00,WUHU21623XXSP,2013-01-02 12:21:00,
2013-01-02 04:26:00,1.9,-3.7,30.35,NNW,337,0.0,0.0,77,0.00,,,0.00,WUHU21623XXSP,2013-01-02 12:26:00,
2013-01-02 04:31:00,1.9,-3.7,30.35,NNW,337,0.0,0.0,77,0.00,,,0.00,WUHU21623XXSP,2013-01-02 12:31:00,
2013-01-02 04:36:00,1.9,-3.7,30.35,North,0,0.0,0.0,77,0.00,,,0.00,WUHU21623XXSP,2013-01-02 12:36:00,
2013-01-02 04:44:00,1.9,-3.7,30.35,North,0,0.0,0.0,77,0.00,,,0.00,WUHU21623XXSP,2013-01-02 12:44:00,
2013-01-02 04:49:00,1.9,-3.5,30.36,North,0,0.0,0.0,78,0.00,,,0.00,WUHU21623XXSP,2013-01-02 12:49:00,
2013-01-02 04:54:00,1.9,-3.5,30.36,North,0,0.0,0.0,78,0.00,,,0.00,WUHU21623XXSP,2013-01-02 12:54:00,
2013-01-02 04:59:00,1.9,-3.5,30.36,NW,315,0.0,0.0,78,0.00,,,0.00,WUHU21623XXSP,2013-01-02 12:59:00,
2013-01-02 05:04:00,1.9,-3.5,30.36,NW,315,0.0,0.0,78,0.00,,,0.00,WUHU21623XXSP,2013-01-02 13:04:00,
2013-01-02 05:09:00,1.9,-3.5,30.36,SSW,202,0.0,0.0,78,0.00,,,0.00,WUHU21623XXSP,2013-01-02 13:09:00,
2013-01-02 05:38:00,1.8,-3.6,30.37,SSW,202,0.0,0.0,78,0.00,,,0.00,WUHU21623XXSP,2013-01-02 13:38:00,
2013-01-02 05:47:00,1.6,-3.8,30.37,South,180,0.0,0.0,78,0.00,,,0.00,WUHU21623XXSP,2013-01-02 13:47:00,
2013-01-02 05:58:00,1.2,-4.2,30.37,SSE,157,0.0,0.0,78,0.00,,,0.00,WUHU21623XXSP,2013-01-02 13:58:00,
2013-01-02 06:03:00,1.2,-4.2,30.37,SSE,157,0.0,0.0,78,0.00,,,0.00,WUHU21623XXSP,2013-01-02 14:03:00,
2013-01-02 06:12:00,0.9,-4.5,30.36,SSE,157,0.0,0.0,78,0.00,,,0.00,WUHU21623XXSP,2013-01-02 14:12:00,
2013-01-02 06:21:00,0.5,-4.8,30.36,SE,135,0.0,0.0,78,0.00,,,0.00,WUHU21623XXSP,2013-01-02 14:21:00,
2013-01-02 06:26:00,0.5,-4.8,30.35,SE,135,0.0,0.0,78,0.00,,,0.00,WUHU21623XXSP,2013-01-02 14:26:00,
2013-01-02 06:42:00,0.1,-4.9,30.35,North,0,0.0,0.0,79,0.00,,,0.00,WUHU21623XXSP,2013-01-02 14:42:00,
2013-01-02 06:49:00,0.0,-5.0,30.35,NNE,22,0.0,0.0,79,0.00,,,0.00,WUHU21623XXSP,2013-01-02 14:49:00,
2013-01-02 06:54:00,0.0,-5.0,30.35,NE,45,0.0,0.0,79,0.00,,,0.00,WUHU21623XXSP,2013-01-02 14:54:00,
2013-01-02 06:59:00,-0.2,-5.2,30.35,NE,45,0.0,0.0,79,0.00,,,0.00,WUHU21623XXSP,2013-01-02 14:59:00,
2013-01-02 07:04:00,-0.2,-5.2,30.35,NE,45,0.0,0.0,79,0.00,,,0.00,WUHU21623XXSP,2013-01-02 15:04:00,
2013-01-02 07:09:00,0.0,-5.0,30.34,SSW,202,0.0,0.0,79,0.00,,,0.00,WUHU21623XXSP,2013-01-02 15:09:00,
2013-01-02 07:14:00,0.0,-5.0,30.34,South,180,0.0,0.0,79,0.00,,,0.00,WUHU21623XXSP,2013-01-02 15:14:00,
2013-01-02 07:21:00,0.1,-4.9,30.34,ESE,112,0.0,0.0,79,0.00,,,0.00,WUHU21623XXSP,2013-01-02 15:21:00,
2013-01-02 07:26:00,0.1,-4.9,30.34,East,90,0.0,0.0,79,0.00,,,0.00,WUHU21623XXSP,2013-01-02 15:26:00,
2013-01-02 07:31:00,0.1,-4.9,30.34,NE,45,0.0,0.0,79,0.00,,,0.00,WUHU21623XXSP,2013-01-02 15:31:00,
2013-01-02 07:36:00,0.1,-4.9,30.34,NE,45,0.0,0.0,79,0.00,,,0.00,WUHU21623XXSP,2013-01-02 15:36:00,
2013-01-02 07:41:00,0.3,-4.7,30.34,ENE,67,0.0,0.0,79,0.00,,,0.00,WUHU21623XXSP,2013-01-02 15:41:00,
2013-01-02 07:46:00,0.5,-4.6,30.34,ESE,112,0.0,0.0,79,0.00,,,0.00,WUHU21623XXSP,2013-01-02 15:46:00,
2013-01-02 07:52:00,0.7,-4.4,30.33,ESE,112,0.0,0.0,79,0.00,,,0.00,WUHU21623XXSP,2013-01-02 15:52:00,
2013-01-02 07:57:00,1.0,-4.1,30.33,ESE,112,0.0,0.0,79,0.00,,,0.00,WUHU21623XXSP,2013-01-02 15:57:00,
2013-01-02 08:02:00,1.9,-3.1,30.34,South,180,0.0,0.0,80,0.00,,,0.00,WUHU21623XXSP,2013-01-02 16:02:00,
2013-01-02 08:10:00,2.7,-2.2,30.33,WSW,247,0.0,0.0,80,0.00,,,0.00,WUHU21623XXSP,2013-01-02 16:10:00,
2013-01-02 08:15:00,3.0,-1.8,30.34,WNW,292,0.0,0.0,80,0.00,,,0.00,WUHU21623XXSP,2013-01-02 16:15:00,
2013-01-02 08:20:00,3.4,-1.8,30.34,NNW,337,1.6,1.6,80,0.00,,,0.00,WUHU21623XXSP,2013-01-02 16:20:00,
2013-01-02 08:25:00,3.9,-1.1,30.34,WNW,292,1.1,1.6,80,0.00,,,0.00,WUHU21623XXSP,2013-01-02 16:25:00,
2013-01-02 08:30:00,3.9,-0.9,30.34,NNW,337,1.1,1.1,80,0.00,,,0.00,WUHU21623XXSP,2013-01-02 16:30:00,
2013-01-02 08:38:00,4.3,-0.6,30.34,WNW,292,0.7,1.1,80,0.00,,,0.00,WUHU21623XXSP,2013-01-02 16:38:00,
2013-01-02 08:43:00,4.5,-0.7,30.34,WNW,292,0.0,0.7,79,0.00,,,0.00,WUHU21623XXSP,2013-01-02 16:43:00,
2013-01-02 08:48:00,4.6,-0.4,30.34,WSW,247,0.0,0.0,80,0.00,,,0.00,WUHU21623XXSP,2013-01-02 16:48:00,
2013-01-02 08:53:00,5.4,0.5,30.33,South,180,0.0,0.0,80,0.00,,,0.00,WUHU21623XXSP,2013-01-02 16:53:00,
2013-01-02 08:58:00,6.1,1.5,30.33,WNW,292,0.0,0.0,81,0.00,,,0.00,WUHU21623XXSP,2013-01-02 16:58:00,
2013-01-02 09:03:00,7.0,2.4,30.34,West,270,0.0,0.0,81,0.00,,,0.00,WUHU21623XXSP,2013-01-02 17:03:00,
2013-01-02 09:08:00,8.1,3.1,30.34,SSW,202,0.0,0.0,81,0.00,,,0.00,WUHU21623XXSP,2013-01-02 17:08:00,
2013-01-02 09:16:00,8.8,4.2,30.33,SSW,202,0.0,0.0,81,0.00,,,0.00,WUHU21623XXSP,2013-01-02 17:16:00,
2013-01-02 09:21:00,9.1,4.2,30.33,WNW,292,0.0,0.0,80,0.00,,,0.00,WUHU21623XXSP,2013-01-02 17:21:00,
2013-01-02 09:27:00,9.9,4.9,30.34,South,180,0.0,0.0,80,0.00,,,0.00,WUHU21623XXSP,2013-01-02 17:27:00,
2013-01-02 09:32:00,10.2,5.2,30.34,SSE,157,0.0,0.0,80,0.00,,,0.00,WUHU21623XXSP,2013-01-02 17:32:00,
2013-01-02 09:40:00,11.1,6.1,30.34,SW,225,0.0,0.0,80,0.00,,,0.00,WUHU21623XXSP,2013-01-02 17:40:00,
2013-01-02 09:45:00,11.8,6.4,30.34,SSW,202,0.0,0.0,80,0.00,,,0.00,WUHU21623XXSP,2013-01-02 17:45:00,
2013-01-02 09:50:00,12.2,6.9,30.35,SSE,157,1.6,1.6,79,0.00,,,0.00,WUHU21623XXSP,2013-01-02 17:50:00,
2013-01-02 09:55:00,12.6,7.2,30.34,SSW,202,0.0,1.6,79,0.00,,,0.00,WUHU21623XXSP,2013-01-02 17:55:00,
2013-01-02 10:00:00,13.1,7.5,30.34,ESE,112,0.0,0.0,78,0.00,,,0.00,WUHU21623XXSP,2013-01-02 18:00:00,
2013-01-02 10:05:00,13.6,8.0,30.34,NW,315,0.0,0.0,78,0.00,,,0.00,WUHU21623XXSP,2013-01-02 18:05:00,
2013-01-02 10:10:00,13.8,8.2,30.34,North,0,0.0,0.0,79,0.00,,,0.00,WUHU21623XXSP,2013-01-02 18:10:00,
2013-01-02 10:16:00,14.7,9.4,30.33,ESE,112,0.0,0.0,79,0.00,,,0.00,WUHU21623XXSP,2013-01-02 18:16:00,
2013-01-02 10:21:00,15.4,10.1,30.34,NNE,22,0.0,0.0,79,0.00,,,0.00,WUHU21623XXSP,2013-01-02 18:21:00,
2013-01-02 10:27:00,16.3,10.9,30.33,NNE,22,0.0,0.0,79,0.00,,,0.00,WUHU21623XXSP,2013-01-02 18:27:00,
2013-01-02 10:33:00,17.2,12.1,30.33,East,90,0.0,0.0,80,0.00,,,0.00,WUHU21623XXSP,2013-01-02 18:33:00,
2013-01-02 10:38:00,18.0,12.3,30.33,ESE,112,0.0,0.0,79,0.00,,,0.00,WUHU21623XXSP,2013-01-02 18:38:00,
2013-01-02 10:44:00,18.3,12.5,30.33,WNW,292,0.0,0.0,78,0.00,,,0.00,WUHU21623XXSP,2013-01-02 18:44:00,
2013-01-02 10:50:00,19.2,13.4,30.33,North,0,1.1,1.1,78,0.00,,,0.00,WUHU21623XXSP,2013-01-02 18:50:00,
2013-01-02 10:55:00,19.6,13.7,30.33,NNW,337,2.2,2.2,78,0.00,,,0.00,WUHU21623XXSP,2013-01-02 18:55:00,
2013-01-02 11:01:00,20.5,14.5,30.33,West,270,2.9,2.9,78,0.00,,,0.00,WUHU21623XXSP,2013-01-02 19:01:00,
2013-01-02 11:06:00,20.8,15.0,30.33,WNW,292,0.0,2.9,78,0.00,,,0.00,WUHU21623XXSP,2013-01-02 19:06:00,
2013-01-02 11:11:00,21.4,15.5,30.33,West,270,2.2,2.2,78,0.00,,,0.00,WUHU21623XXSP,2013-01-02 19:11:00,
2013-01-02 11:16:00,22.3,15.8,30.33,WNW,292,4.7,4.7,77,0.00,,,0.00,WUHU21623XXSP,2013-01-02 19:16:00,
2013-01-02 11:21:00,22.6,16.5,30.33,WNW,292,4.5,4.7,77,0.00,,,0.00,WUHU21623XXSP,2013-01-02 19:21:00,
2013-01-02 11:29:00,23.5,17.1,30.32,WNW,292,0.0,6.3,76,0.00,,,0.00,WUHU21623XXSP,2013-01-02 19:29:00,
2013-01-02 11:34:00,24.1,17.6,30.32,WNW,292,4.0,4.0,76,0.00,,,0.00,WUHU21623XXSP,2013-01-02 19:34:00,
2013-01-02 11:39:00,25.0,18.1,30.32,WNW,292,5.4,5.4,76,0.00,,,0.00,WUHU21623XXSP,2013-01-02 19:39:00,
2013-01-02 11:46:00,25.5,18.3,30.32,NW,315,2.9,5.4,74,0.00,,,0.00,WUHU21623XXSP,2013-01-02 19:46:00,
2013-01-02 11:51:00,26.2,19.0,30.32,North,0,0.0,2.9,74,0.00,,,0.00,WUHU21623XXSP,2013-01-02 19:51:00,
2013-01-02 11:57:00,26.8,19.2,30.31,West,270,0.0,0.0,73,0.00,,,0.00,WUHU21623XXSP,2013-01-02 19:57:00,
2013-01-02 12:03:00,27.3,19.5,30.31,SSW,202,0.0,0.0,72,0.00,,,0.00,WUHU21623XXSP,2013-01-02 20:03:00,
2013-01-02 12:08:00,27.7,19.5,30.31,SE,135,0.0,0.0,71,0.00,,,0.00,WUHU21623XXSP,2013-01-02 20:08:00,
2013-01-02 12:13:00,28.2,20.4,30.31,North,0,0.0,0.0,72,0.00,,,0.00,WUHU21623XXSP,2013-01-02 20:13:00,
2013-01-02 12:18:00,28.8,20.9,30.31,WSW,247,0.0,0.0,72,0.00,,,0.00,WUHU21623XXSP,2013-01-02 20:18:00,
2013-01-02 12:27:00,29.8,20.9,30.30,WSW,247,0.0,0.0,69,0.00,,,0.00,WUHU21623XXSP,2013-01-02 20:27:00,
2013-01-02 12:32:00,30.0,20.9,30.30,SE,135,0.0,0.0,69,0.00,,,0.00,WUHU21623XXSP,2013-01-02 20:32:00,
2013-01-02 12:37:00,30.4,21.2,30.30,WSW,247,0.0,0.0,68,0.00,,,0.00,WUHU21623XXSP,2013-01-02 20:37:00,
2013-01-02 12:42:00,30.6,20.8,30.30,SE,135,0.0,0.0,67,0.00,,,0.00,WUHU21623XXSP,2013-01-02 20:42:00,
2013-01-02 12:47:00,30.7,20.7,30.30,South,180,0.0,0.0,66,0.00,,,0.00,WUHU21623XXSP,2013-01-02 20:47:00,
2013-01-02 12:52:00,30.9,20.7,30.30,South,180,0.0,0.0,66,0.00,,,0.00,WUHU21623XXSP,2013-01-02 20:52:00,
2013-01-02 12:59:00,31.3,21.2,30.29,SE,135,0.0,0.0,66,0.00,,,0.00,WUHU21623XXSP,2013-01-02 20:59:00,
2013-01-02 13:05:00,32.0,21.9,30.29,ENE,67,0.0,0.0,66,0.00,,,0.00,WUHU21623XXSP,2013-01-02 21:05:00,
2013-01-02 13:12:00,32.7,22.9,30.29,South,180,1.6,1.6,67,0.00,,,0.00,WUHU21623XXSP,2013-01-02 21:12:00,
2013-01-02 13:17:00,33.6,23.6,30.29,NNW,337,0.0,1.6,67,0.00,,,0.00,WUHU21623XXSP,2013-01-02 21:17:00,
2013-01-02 13:25:00,34.9,25.0,30.29,NNE,22,0.0,0.0,67,0.00,,,0.00,WUHU21623XXSP,2013-01-02 21:25:00,
2013-01-02 13:30:00,35.4,25.2,30.29,SE,135,0.0,0.0,66,0.00,,,0.00,WUHU21623XXSP,2013-01-02 21:30:00,
2013-01-02 13:35:00,35.4,24.4,30.29,South,180,0.0,0.0,64,0.00,,,0.00,WUHU21623XXSP,2013-01-02 21:35:00,
2013-01-02 13:40:00,36.0,24.6,30.29,SE,135,0.0,0.0,63,0.00,,,0.00,WUHU21623XXSP,2013-01-02 21:40:00,
2013-01-02 13:45:00,36.0,24.2,30.28,South,180,0.0,0.0,62,0.00,,,0.00,WUHU21623XXSP,2013-01-02 21:45:00,
2013-01-02 13:50:00,36.1,24.4,30.28,SE,135,1.3,1.3,62,0.00,,,0.00,WUHU21623XXSP,2013-01-02 21:50:00,
2013-01-02 13:57:00,35.8,23.3,30.28,South,180,3.6,3.6,60,0.00,,,0.00,WUHU21623XXSP,2013-01-02 21:57:00,
2013-01-02 14:02:00,35.2,22.4,30.28,South,180,0.0,3.6,59,0.00,,,0.00,WUHU21623XXSP,2013-01-02 22:02:00,
2013-01-02 14:07:00,34.7,21.4,30.28,SW,225,0.0,0.0,58,0.00,,,0.00,WUHU21623XXSP,2013-01-02 22:07:00,
2013-01-02 14:12:00,34.0,20.7,30.28,SSE,157,0.0,0.0,58,0.00,,,0.00,WUHU21623XXSP,2013-01-02 22:12:00,
2013-01-02 14:17:00,33.6,20.4,30.28,ESE,112,0.0,0.0,58,0.00,,,0.00,WUHU21623XXSP,2013-01-02 22:17:00,
2013-01-02 14:22:00,32.7,19.5,30.27,SSE,157,0.0,0.0,58,0.00,,,0.00,WUHU21623XXSP,2013-01-02 22:22:00,
2013-01-02 14:28:00,32.5,19.4,30.28,NW,315,0.0,0.0,58,0.00,,,0.00,WUHU21623XXSP,2013-01-02 22:28:00,
2013-01-02 14:35:00,31.8,18.7,30.28,ESE,112,0.0,0.0,58,0.00,,,0.00,WUHU21623XXSP,2013-01-02 22:35:00,
2013-01-02 14:40:00,31.5,18.5,30.28,NNW,337,0.0,0.0,58,0.00,,,0.00,WUHU21623XXSP,2013-01-02 22:40:00,
2013-01-02 14:45:00,31.3,18.6,30.28,SSW,202,0.0,0.0,59,0.00,,,0.00,WUHU21623XXSP,2013-01-02 22:45:00,
2013-01-02 14:50:00,31.1,18.4,30.28,SSE,157,0.0,0.0,59,0.00,,,0.00,WUHU21623XXSP,2013-01-02 22:50:00,
2013-01-02 14:55:00,30.7,18.1,30.27,West,270,0.0,0.0,59,0.00,,,0.00,WUHU21623XXSP,2013-01-02 22:55:00,
2013-01-02 15:00:00,30.7,18.1,30.27,SE,135,0.0,0.0,59,0.00,,,0.00,WUHU21623XXSP,2013-01-02 23:00:00,
2013-01-02 15:08:00,30.0,17.4,30.28,SSW,202,0.0,0.0,59,0.00,,,0.00,WUHU21623XXSP,2013-01-02 23:08:00,
2013-01-02 15:13:00,29.8,17.4,30.28,SSW,202,0.0,0.0,59,0.00,,,0.00,WUHU21623XXSP,2013-01-02 23:13:00,
2013-01-02 15:18:00,29.3,16.7,30.28,SW,225,0.0,0.0,59,0.00,,,0.00,WUHU21623XXSP,2013-01-02 23:18:00,
2013-01-02 15:23:00,29.1,16.6,30.28,SSW,202,0.0,0.0,59,0.00,,,0.00,WUHU21623XXSP,2013-01-02 23:23:00,
2013-01-02 15:28:00,28.8,16.3,30.28,West,270,0.0,0.0,59,0.00,,,0.00,WUHU21623XXSP,2013-01-02 23:28:00,
2013-01-02 15:33:00,28.6,16.1,30.28,North,0,0.0,0.0,59,0.00,,,0.00,WUHU21623XXSP,2013-01-02 23:33:00,
2013-01-02 15:38:00,28.6,16.5,30.28,WNW,292,0.0,0.0,60,0.00,,,0.00,WUHU21623XXSP,2013-01-02 23:38:00,
2013-01-02 15:44:00,28.2,16.2,30.28,WNW,292,0.0,0.0,60,0.00,,,0.00,WUHU21623XXSP,2013-01-02 23:44:00,
2013-01-02 15:50:00,28.0,16.0,30.28,WNW,292,0.0,0.0,60,0.00,,,0.00,WUHU21623XXSP,2013-01-02 23:50:00,
2013-01-02 15:57:00,27.7,16.0,30.28,WNW,292,0.0,0.0,61,0.00,,,0.00,WUHU21623XXSP,2013-01-02 23:57:00,
2013-01-02 16:02:00,27.7,16.0,30.28,NW,315,0.0,0.0,61,0.00,,,0.00,WUHU21623XXSP,2013-01-03 00:02:00,
2013-01-02 16:07:00,27.5,15.8,30.28,WSW,247,0.0,0.0,61,0.00,,,0.00,WUHU21623XXSP,2013-01-03 00:07:00,
2013-01-02 16:12:00,27.3,15.6,30.28,WNW,292,0.0,0.0,61,0.00,,,0.00,WUHU21623XXSP,2013-01-03 00:12:00,
2013-01-02 16:17:00,27.1,15.4,30.28,West,270,0.0,0.0,61,0.00,,,0.00,WUHU21623XXSP,2013-01-03 00:17:00,
2013-01-02 16:27:00,26.6,14.9,30.29,WSW,247,0.0,0.0,61,0.00,,,0.00,WUHU21623XXSP,2013-01-03 00:27:00,
2013-01-02 16:46:00,25.5,13.9,30.29,WNW,292,1.6,1.6,61,0.00,,,0.00,WUHU21623XXSP,2013-01-03 00:46:00,
2013-01-02 16:52:00,25.0,13.8,30.29,WNW,292,0.0,1.6,62,0.00,,,0.00,WUHU21623XXSP,2013-01-03 00:52:00,
2013-01-02 17:03:00,24.1,12.9,30.29,NW,315,1.6,1.6,62,0.00,,,0.00,WUHU21623XXSP,2013-01-03 01:03:00,
2013-01-02 17:12:00,23.5,12.7,30.29,NNW,337,1.3,1.6,63,0.00,,,0.00,WUHU21623XXSP,2013-01-03 01:12:00,
2013-01-02 17:20:00,23.0,12.2,30.30,NNW,337,1.1,1.3,63,0.00,,,0.00,WUHU21623XXSP,2013-01-03 01:20:00,
2013-01-02 17:25:00,22.8,12.4,30.30,North,0,2.7,2.7,64,0.00,,,0.00,WUHU21623XXSP,2013-01-03 01:25:00,
2013-01-02 17:33:00,22.3,11.9,30.30,West,270,2.7,4.7,64,0.00,,,0.00,WUHU21623XXSP,2013-01-03 01:33:00,
2013-01-02 17:38:00,22.1,11.7,30.30,NE,45,0.0,2.7,64,0.00,,,0.00,WUHU21623XXSP,2013-01-03 01:38:00,
2013-01-02 17:43:00,21.9,11.9,30.31,North,0,0.0,0.0,65,0.00,,,0.00,WUHU21623XXSP,2013-01-03 01:43:00,
2013-01-02 17:48:00,21.7,11.7,30.31,NNW,337,2.0,2.0,65,0.00,,,0.00,WUHU21623XXSP,2013-01-03 01:48:00,
2013-01-02 17:53:00,21.6,11.7,30.31,SE,135,0.0,2.0,65,0.00,,,0.00,WUHU21623XXSP,2013-01-03 01:53:00,
2013-01-02 17:59:00,21.4,11.4,30.31,SE,135,0.0,2.0,65,0.00,,,0.00,WUHU21623XXSP,2013-01-03 01:59:00,
2013-01-02 18:04:00,21.0,11.4,30.31,ESE,112,0.0,0.0,65,0.00,,,0.00,WUHU21623XXSP,2013-01-03 02:04:00,
2013-01-02 18:09:00,20.8,11.0,30.32,ESE,112,0.0,0.0,65,0.00,,,0.00,WUHU21623XXSP,2013-01-03 02:09:00,
2013-01-02 18:14:00,20.8,10.8,30.31,SSE,157,0.0,0.0,65,0.00,,,0.00,WUHU21623XXSP,2013-01-03 02:14:00,
2013-01-02 18:19:00,20.5,10.5,30.31,SSE,157,0.0,0.0,65,0.00,,,0.00,WUHU21623XXSP,2013-01-03 02:19:00,
2013-01-02 18:24:00,20.1,10.3,30.31,South,180,0.0,0.0,65,0.00,,,0.00,WUHU21623XXSP,2013-01-03 02:24:00,
2013-01-02 18:29:00,19.9,9.9,30.31,South,180,0.0,0.0,65,0.00,,,0.00,WUHU21623XXSP,2013-01-03 02:29:00,
2013-01-02 18:31:00,19.8,9.8,30.31,SSE,157,0.0,0.0,65,0.00,,,0.00,WUHU21623XXSP,2013-01-03 02:31:00,
2013-01-02 18:34:00,19.8,9.8,30.31,SSE,157,0.0,0.0,65,0.00,,,0.00,WUHU21623XXSP,2013-01-03 02:34:00,
2013-01-02 18:37:00,19.4,9.4,30.32,NW,315,0.0,0.0,65,0.00,,,0.00,WUHU21623XXSP,2013-01-03 02:37:00,
2013-01-02 18:48:00,18.9,8.9,30.32,South,180,0.0,0.0,65,0.00,,,0.00,WUHU21623XXSP,2013-01-03 02:48:00,
2013-01-02 18:54:00,18.5,8.6,30.32,South,180,0.0,0.0,65,0.00,,,0.00,WUHU21623XXSP,2013-01-03 02:54:00,
2013-01-02 19:06:00,18.0,8.5,30.32,ESE,112,0.0,0.0,66,0.00,,,0.00,WUHU21623XXSP,2013-01-03 03:06:00,
2013-01-02 19:11:00,17.8,8.3,30.32,ESE,112,0.0,0.0,66,0.00,,,0.00,WUHU21623XXSP,2013-01-03 03:11:00,
2013-01-02 19:16:00,17.4,8.0,30.32,ESE,112,0.0,0.0,66,0.00,,,0.00,WUHU21623XXSP,2013-01-03 03:16:00,
2013-01-02 19:21:00,17.2,8.0,30.32,ESE,112,0.0,0.0,66,0.00,,,0.00,WUHU21623XXSP,2013-01-03 03:21:00,
2013-01-02 19:27:00,16.7,7.2,30.31,ESE,112,0.0,0.0,66,0.00,,,0.00,WUHU21623XXSP,2013-01-03 03:27:00,
2013-01-02 19:33:00,16.3,6.9,30.31,SSE,157,0.0,0.0,66,0.00,,,0.00,WUHU21623XXSP,2013-01-03 03:33:00,
2013-01-02 19:38:00,16.3,6.9,30.31,SSE,157,0.0,0.0,66,0.00,,,0.00,WUHU21623XXSP,2013-01-03 03:38:00,
2013-01-02 19:43:00,16.0,6.5,30.31,SSE,157,0.0,0.0,66,0.00,,,0.00,WUHU21623XXSP,2013-01-03 03:43:00,
2013-01-02 19:48:00,15.8,6.3,30.31,SSE,157,0.0,0.0,66,0.00,,,0.00,WUHU21623XXSP,2013-01-03 03:48:00,
2013-01-02 19:53:00,15.4,6.2,30.31,SSW,202,0.0,0.0,66,0.00,,,0.00,WUHU21623XXSP,2013-01-03 03:53:00,
2013-01-02 19:58:00,15.4,6.3,30.31,NW,315,0.0,0.0,67,0.00,,,0.00,WUHU21623XXSP,2013-01-03 03:58:00,
2013-01-02 20:03:00,15.1,6.0,30.31,SW,225,0.0,0.0,67,0.00,,,0.00,WUHU21623XXSP,2013-01-03 04:03:00,
2013-01-02 20:08:00,14.5,5.4,30.31,SSW,202,0.0,0.0,66,0.00,,,0.00,WUHU21623XXSP,2013-01-03 04:08:00,
2013-01-02 20:14:00,14.2,4.9,30.30,SE,135,0.0,0.0,66,0.00,,,0.00,WUHU21623XXSP,2013-01-03 04:14:00,
2013-01-02 20:19:00,14.0,4.7,30.30,SSE,157,0.0,0.0,66,0.00,,,0.00,WUHU21623XXSP,2013-01-03 04:19:00,
2013-01-02 20:25:00,13.6,4.4,30.30,West,270,0.0,0.0,66,0.00,,,0.00,WUHU21623XXSP,2013-01-03 04:25:00,
2013-01-02 20:30:00,13.3,4.0,30.30,South,180,0.0,0.0,66,0.00,,,0.00,WUHU21623XXSP,2013-01-03 04:30:00,
2013-01-02 20:35:00,13.1,3.8,30.30,SSE,157,0.0,0.0,66,0.00,,,0.00,WUHU21623XXSP,2013-01-03 04:35:00,
2013-01-02 20:40:00,12.7,3.8,30.30,SSE,157,0.0,0.0,67,0.00,,,0.00,WUHU21623XXSP,2013-01-03 04:40:00,
2013-01-02 20:45:00,12.4,3.4,30.30,SSE,157,0.0,0.0,67,0.00,,,0.00,WUHU21623XXSP,2013-01-03 04:45:00,
2013-01-02 20:50:00,12.0,3.1,30.30,SSE,157,0.0,0.0,67,0.00,,,0.00,WUHU21623XXSP,2013-01-03 04:50:00,
2013-01-02 20:57:00,11.5,2.6,30.30,SSE,157,0.0,0.0,67,0.00,,,0.00,WUHU21623XXSP,2013-01-03 04:57:00,
2013-01-02 21:01:00,11.5,2.6,30.30,SSE,157,0.0,0.0,67,0.00,,,0.00,WUHU21623XXSP,2013-01-03 05:01:00,
2013-01-02 21:02:00,11.1,2.4,30.30,ENE,67,0.0,0.0,67,0.00,,,0.00,WUHU21623XXSP,2013-01-03 05:02:00,
2013-01-02 21:03:00,11.1,2.4,30.30,ENE,67,0.0,0.0,67,0.00,,,0.00,WUHU21623XXSP,2013-01-03 05:03:00,
2013-01-02 21:08:00,11.1,2.2,30.30,ENE,67,0.0,0.0,67,0.00,,,0.00,WUHU21623XXSP,2013-01-03 05:08:00,
2013-01-02 21:13:00,10.8,1.8,30.30,SE,135,0.0,0.0,67,0.00,,,0.00,WUHU21623XXSP,2013-01-03 05:13:00,
2013-01-02 21:18:00,10.6,1.7,30.30,West,270,0.0,0.0,67,0.00,,,0.00,WUHU21623XXSP,2013-01-03 05:18:00,
2013-01-02 21:23:00,10.4,1.8,30.29,WNW,292,0.0,0.0,68,0.00,,,0.00,WUHU21623XXSP,2013-01-03 05:23:00,
2013-01-02 21:28:00,10.2,1.7,30.29,WNW,292,0.0,0.0,68,0.00,,,0.00,WUHU21623XXSP,2013-01-03 05:28:00,
2013-01-02 21:33:00,10.0,1.5,30.29,WNW,292,0.0,0.0,68,0.00,,,0.00,WUHU21623XXSP,2013-01-03 05:33:00,
2013-01-02 21:38:00,10.0,1.5,30.28,WNW,292,0.0,0.0,68,0.00,,,0.00,WUHU21623XXSP,2013-01-03 05:38:00,
2013-01-02 21:43:00,9.7,1.2,30.28,NNE,22,0.0,0.0,68,0.00,,,0.00,WUHU21623XXSP,2013-01-03 05:43:00,
2013-01-02 21:48:00,9.7,1.2,30.28,NNE,22,0.0,0.0,68,0.00,,,0.00,WUHU21623XXSP,2013-01-03 05:48:00,
2013-01-02 21:53:00,9.5,1.0,30.28,NNE,22,0.0,0.0,68,0.00,,,0.00,WUHU21623XXSP,2013-01-03 05:53:00,
2013-01-02 21:58:00,9.5,1.0,30.28,North,0,0.0,0.0,68,0.00,,,0.00,WUHU21623XXSP,2013-01-03 05:58:00,
2013-01-02 22:05:00,9.1,1.0,30.28,WNW,292,0.0,0.0,69,0.00,,,0.00,WUHU21623XXSP,2013-01-03 06:05:00,
2013-01-02 22:12:00,9.1,1.0,30.28,WNW,292,0.0,0.0,69,0.00,,,0.00,WUHU21623XXSP,2013-01-03 06:12:00,
2013-01-02 22:18:00,9.0,0.8,30.28,SW,225,0.0,0.0,69,0.00,,,0.00,WUHU21623XXSP,2013-01-03 06:18:00,
2013-01-02 22:23:00,9.0,0.8,30.28,SW,225,0.0,0.0,69,0.00,,,0.00,WUHU21623XXSP,2013-01-03 06:23:00,
2013-01-02 22:28:00,8.8,0.7,30.28,SSE,157,0.0,0.0,69,0.00,,,0.00,WUHU21623XXSP,2013-01-03 06:28:00,
2013-01-02 22:33:00,8.6,0.5,30.28,NW,315,0.0,0.0,69,0.00,,,0.00,WUHU21623XXSP,2013-01-03 06:33:00,
2013-01-02 22:38:00,8.6,0.5,30.28,NW,315,0.0,0.0,69,0.00,,,0.00,WUHU21623XXSP,2013-01-03 06:38:00,
2013-01-02 22:46:00,8.4,0.7,30.28,SSE,157,0.0,0.0,70,0.00,,,0.00,WUHU21623XXSP,2013-01-03 06:46:00,
2013-01-02 22:51:00,8.4,0.7,30.28,SSE,157,0.0,0.0,70,0.00,,,0.00,WUHU21623XXSP,2013-01-03 06:51:00,
2013-01-02 22:56:00,8.2,0.5,30.28,SSE,157,0.0,0.0,70,0.00,,,0.00,WUHU21623XXSP,2013-01-03 06:56:00,
2013-01-02 23:01:00,8.1,0.3,30.27,South,180,0.0,0.0,70,0.00,,,0.00,WUHU21623XXSP,2013-01-03 07:01:00,
2013-01-02 23:06:00,8.1,0.3,30.28,SSE,157,0.0,0.0,70,0.00,,,0.00,WUHU21623XXSP,2013-01-03 07:06:00,
2013-01-02 23:11:00,7.9,0.1,30.27,South,180,0.0,0.0,70,0.00,,,0.00,WUHU21623XXSP,2013-01-03 07:11:00,
2013-01-02 23:16:00,7.7,0.0,30.27,SE,135,0.0,0.0,70,0.00,,,0.00,WUHU21623XXSP,2013-01-03 07:16:00,
2013-01-02 23:21:00,7.5,-0.2,30.27,SE,135,0.0,0.0,70,0.00,,,0.00,WUHU21623XXSP,2013-01-03 07:21:00,
2013-01-02 23:27:00,7.3,-0.4,30.27,ESE,112,0.0,0.0,70,0.00,,,0.00,WUHU21623XXSP,2013-01-03 07:27:00,
2013-01-02 23:32:00,7.2,-0.6,30.27,NE,45,0.0,0.0,70,0.00,,,0.00,WUHU21623XXSP,2013-01-03 07:32:00,
2013-01-02 23:37:00,7.0,-0.8,30.27,ESE,112,0.0,0.0,70,0.00,,,0.00,WUHU21623XXSP,2013-01-03 07:37:00,
2013-01-02 23:48:00,6.6,-0.8,30.26,NE,45,0.0,0.0,71,0.00,,,0.00,WUHU21623XXSP,2013-01-03 07:48:00,
2013-01-02 23:54:00,6.6,-0.8,30.27,ENE,67,0.0,0.0,71,0.00,,,0.00,WUHU21623XXSP,2013-01-03 07:54:00,
2013-01-02 23:59:00,6.6,-0.8,30.26,NE,45,0.0,0.0,71,0.00,,,0.00,WUHU21623XXSP,2013-01-03 07:59:00,